createdAt,value
2023-10-27T00:00:40.913Z,9.40
2023-10-27T00:03:07.982Z,7.63
2023-10-27T00:05:34.534Z,9.00
2023-10-27T00:08:01.077Z,7.33
2023-10-27T00:10:27.583Z,8.50
2023-10-27T00:12:54.135Z,8.20
2023-10-27T00:15:20.746Z,7.40
2023-10-27T00:17:47.335Z,8.20
2023-10-27T00:20:14.103Z,7.83
2023-10-27T00:22:40.605Z,7.17
2023-10-27T00:25:07.391Z,9.27
2023-10-27T00:27:33.899Z,9.00
2023-10-27T00:30:01.229Z,8.27
2023-10-27T00:32:27.809Z,7.90
2023-10-27T00:34:54.373Z,8.03
2023-10-27T00:37:22.294Z,7.97
2023-10-27T00:39:48.988Z,8.20
2023-10-27T00:42:17.205Z,7.53
2023-10-27T00:44:43.792Z,8.17
2023-10-27T00:47:10.419Z,7.63
2023-10-27T00:49:37.080Z,8.17
2023-10-27T00:52:04.922Z,7.60
2023-10-27T00:54:31.431Z,7.70
2023-10-27T00:56:58.477Z,7.83
2023-10-27T00:59:25.460Z,8.30
2023-10-27T01:01:52.042Z,8.43
2023-10-27T01:04:18.627Z,7.97
2023-10-27T01:06:45.294Z,8.93
2023-10-27T01:09:11.812Z,8.90
2023-10-27T01:11:39.317Z,9.60
2023-10-27T01:14:05.829Z,8.30
2023-10-27T01:16:32.330Z,8.30
2023-10-27T01:18:58.956Z,8.40
2023-10-27T01:21:25.498Z,7.60
2023-10-27T01:23:51.975Z,8.33
2023-10-27T01:26:18.450Z,8.93
2023-10-27T01:28:44.963Z,8.93
2023-10-27T01:31:11.572Z,9.27
2023-10-27T01:33:39.367Z,9.33
2023-10-27T01:36:06.309Z,9.70
2023-10-27T01:38:32.852Z,9.17
2023-10-27T01:40:59.350Z,9.13
2023-10-27T01:43:27.419Z,10.90
2023-10-27T01:45:54.263Z,9.83
2023-10-27T01:48:20.817Z,9.97
2023-10-27T01:50:49.425Z,10.50
2023-10-27T01:53:16.682Z,9.00
2023-10-27T01:55:43.187Z,9.50
2023-10-27T01:58:10.335Z,9.00
2023-10-27T02:00:37.210Z,10.07
2023-10-27T02:03:03.877Z,10.70
2023-10-27T02:05:30.482Z,9.07
2023-10-27T02:07:59.704Z,9.27
2023-10-27T02:10:26.357Z,8.00
2023-10-27T02:12:53.058Z,9.03
2023-10-27T02:15:19.687Z,11.23
2023-10-27T02:17:46.229Z,10.10
2023-10-27T02:20:12.737Z,8.10
2023-10-27T02:22:41.296Z,9.37
2023-10-27T02:25:08.068Z,9.60
2023-10-27T02:27:39.307Z,8.27
2023-10-27T02:30:07.334Z,8.80
2023-10-27T02:32:33.832Z,9.77
2023-10-27T02:35:00.357Z,8.97
2023-10-27T02:37:26.879Z,8.47
2023-10-27T02:39:53.395Z,9.03
2023-10-27T02:42:20.023Z,8.93
2023-10-27T02:44:46.495Z,9.40
2023-10-27T02:47:13.287Z,8.27
2023-10-27T02:49:39.873Z,8.70
2023-10-27T02:52:06.699Z,8.20
2023-10-27T02:54:33.304Z,9.00
2023-10-27T02:56:59.801Z,8.53
2023-10-27T02:59:26.301Z,8.90
2023-10-27T03:01:55.120Z,8.30
2023-10-27T03:04:21.821Z,8.10
2023-10-27T03:06:48.534Z,8.27
2023-10-27T03:09:15.127Z,8.70
2023-10-27T03:11:42.777Z,8.80
2023-10-27T03:14:09.272Z,8.43
2023-10-27T03:16:36.143Z,8.30
2023-10-27T03:19:02.861Z,8.53
2023-10-27T03:21:29.483Z,7.30
2023-10-27T03:23:55.958Z,7.40
2023-10-27T03:26:22.453Z,7.20
2023-10-27T03:28:49.390Z,8.47
2023-10-27T03:31:15.946Z,7.10
2023-10-27T03:33:42.517Z,7.57
2023-10-27T03:36:09.134Z,8.03
2023-10-27T03:38:35.815Z,7.37
2023-10-27T03:41:02.325Z,7.60
2023-10-27T03:43:30.040Z,8.00
2023-10-27T03:45:56.674Z,7.77
2023-10-27T03:48:23.583Z,8.37
2023-10-27T03:50:50.207Z,8.53
2023-10-27T03:53:17.225Z,7.43
2023-10-27T03:55:43.815Z,8.10
2023-10-27T03:58:14.679Z,7.67
2023-10-27T04:00:41.266Z,8.20
2023-10-27T04:03:07.799Z,7.20
2023-10-27T04:05:34.263Z,7.33
2023-10-27T04:08:00.775Z,7.20
2023-10-27T04:10:27.354Z,7.00
2023-10-27T04:12:53.866Z,7.13
2023-10-27T04:15:20.442Z,6.60
2023-10-27T04:17:46.973Z,7.03
2023-10-27T04:20:13.459Z,6.20
2023-10-27T04:22:40.009Z,5.67
2023-10-27T04:25:06.804Z,6.10
2023-10-27T04:27:33.333Z,6.20
2023-10-27T04:29:59.837Z,6.50
2023-10-27T04:32:27.398Z,5.67
2023-10-27T04:34:54.061Z,7.20
2023-10-27T04:37:20.604Z,6.50
2023-10-27T04:39:47.170Z,7.40
2023-10-27T04:42:13.763Z,7.23
2023-10-27T04:44:40.304Z,6.33
2023-10-27T04:47:06.764Z,6.57
2023-10-27T04:49:33.323Z,5.97
2023-10-27T04:52:00.690Z,6.80
2023-10-27T04:54:27.236Z,5.83
2023-10-27T04:56:53.720Z,5.80
2023-10-27T04:59:21.262Z,6.50
2023-10-27T05:01:47.752Z,5.80
2023-10-27T05:04:14.349Z,5.83
2023-10-27T05:06:40.934Z,6.07
2023-10-27T05:09:07.481Z,5.47
2023-10-27T05:11:34.097Z,5.80
2023-10-27T05:14:00.583Z,4.57
2023-10-27T05:16:27.117Z,4.70
2023-10-27T05:18:53.773Z,3.80
2023-10-27T05:21:20.861Z,4.00
2023-10-27T05:23:48.802Z,3.90
2023-10-27T05:26:15.648Z,3.53
2023-10-27T05:28:42.169Z,3.73
2023-10-27T05:31:08.705Z,3.27
2023-10-27T05:33:35.204Z,3.10
2023-10-27T05:36:01.659Z,3.00
2023-10-27T05:38:28.135Z,3.10
2023-10-27T05:40:54.609Z,2.63
2023-10-27T05:43:21.391Z,2.90
2023-10-27T05:45:48.012Z,2.50
2023-10-27T05:48:14.644Z,2.90
2023-10-27T05:50:41.385Z,2.70
2023-10-27T05:53:07.908Z,3.10
2023-10-27T05:55:34.458Z,3.00
2023-10-27T05:58:01.052Z,3.10
2023-10-27T06:00:27.608Z,3.00
2023-10-27T06:02:54.325Z,3.13
2023-10-27T06:05:24.388Z,2.80
2023-10-27T06:07:50.968Z,3.83
2023-10-27T06:10:18.261Z,3.53
2023-10-27T06:12:44.977Z,3.30
2023-10-27T06:15:11.490Z,2.77
2023-10-27T06:17:37.999Z,3.27
2023-10-27T06:20:16.539Z,2.80
2023-10-27T06:22:45.816Z,3.77
2023-10-27T06:25:12.717Z,2.90
2023-10-27T06:27:39.368Z,2.60
2023-10-27T06:30:07.622Z,2.93
2023-10-27T06:32:34.229Z,3.37
2023-10-27T06:35:00.732Z,3.10
2023-10-27T06:37:27.527Z,3.30
2023-10-27T06:39:59.907Z,2.97
2023-10-27T06:42:26.745Z,3.70
2023-10-27T06:44:53.206Z,2.80
2023-10-27T06:47:22.635Z,3.13
2023-10-27T06:49:49.840Z,2.90
2023-10-27T06:52:16.708Z,3.60
2023-10-27T06:54:43.605Z,3.40
2023-10-27T06:57:11.322Z,3.50
2023-10-27T06:59:37.864Z,3.10
2023-10-27T07:02:04.528Z,3.73
2023-10-27T07:04:31.294Z,2.83
2023-10-27T07:06:57.901Z,3.03
2023-10-27T07:09:24.855Z,3.37
2023-10-27T07:11:51.342Z,3.33
2023-10-27T07:14:17.827Z,3.73
2023-10-27T07:16:44.855Z,2.97
2023-10-27T07:19:12.346Z,3.57
2023-10-27T07:21:39.293Z,2.97
2023-10-27T07:24:06.255Z,3.30
2023-10-27T07:26:32.772Z,2.80
2023-10-27T07:28:59.525Z,3.87
2023-10-27T07:31:26.231Z,2.80
2023-10-27T07:33:52.911Z,2.90
2023-10-27T07:36:19.501Z,2.90
2023-10-27T07:38:46.044Z,2.77
2023-10-27T07:41:12.566Z,2.70
2023-10-27T07:43:39.092Z,3.27
2023-10-27T07:46:05.777Z,2.37
2023-10-27T07:48:33.010Z,2.80
2023-10-27T07:50:59.851Z,2.90
2023-10-27T07:53:27.906Z,2.80
2023-10-27T07:55:55.065Z,2.80
2023-10-27T07:58:22.525Z,3.10
2023-10-27T08:00:49.082Z,3.10
2023-10-27T08:03:15.863Z,3.40
2023-10-27T08:05:42.370Z,2.83
2023-10-27T08:08:08.876Z,3.20
2023-10-27T08:10:37.648Z,2.80
2023-10-27T08:13:04.215Z,3.10
2023-10-27T08:15:30.712Z,4.50
2023-10-27T08:17:57.262Z,3.90
2023-10-27T08:20:23.810Z,3.83
2023-10-27T08:22:50.282Z,3.70
2023-10-27T08:25:16.952Z,4.17
2023-10-27T08:27:43.478Z,3.73
2023-10-27T08:30:10.200Z,3.80
2023-10-27T08:32:36.736Z,3.93
2023-10-27T08:35:03.818Z,3.80
2023-10-27T08:37:30.671Z,3.73
2023-10-27T08:39:57.224Z,4.47
2023-10-27T08:42:23.885Z,3.90
2023-10-27T08:44:50.532Z,3.10
2023-10-27T08:47:17.099Z,3.30
2023-10-27T08:49:43.597Z,4.10
2023-10-27T08:52:10.321Z,3.47
2023-10-27T08:54:41.983Z,3.57
2023-10-27T08:57:09.543Z,3.47
2023-10-27T08:59:36.970Z,3.80
2023-10-27T09:02:04.546Z,3.00
2023-10-27T09:04:32.337Z,3.47
2023-10-27T09:06:58.896Z,3.33
2023-10-27T09:09:26.231Z,4.07
2023-10-27T09:11:52.833Z,3.80
2023-10-27T09:14:24.472Z,3.37
2023-10-27T09:16:52.802Z,4.70
2023-10-27T09:19:23.434Z,3.53
2023-10-27T09:21:49.933Z,2.73
2023-10-27T09:24:26.656Z,3.73
2023-10-27T09:26:54.095Z,3.30
2023-10-27T09:29:21.274Z,3.30
2023-10-27T09:31:48.125Z,3.13
2023-10-27T09:34:21.073Z,3.00
2023-10-27T09:36:49.700Z,3.80
2023-10-27T09:39:21.559Z,2.93
2023-10-27T09:41:52.418Z,2.90
2023-10-27T09:44:21.152Z,3.70
2023-10-27T09:46:53.451Z,3.60
2023-10-27T09:49:26.660Z,3.80
2023-10-27T09:52:01.281Z,3.50
2023-10-27T09:54:31.244Z,3.67
2023-10-27T09:57:05.887Z,3.80
2023-10-27T09:59:35.098Z,3.20
2023-10-27T10:02:06.383Z,3.60
2023-10-27T10:04:51.380Z,3.13
2023-10-27T10:07:38.770Z,3.13
2023-10-27T10:10:30.904Z,3.03
2023-10-27T10:13:07.531Z,3.00
2023-10-27T10:15:39.061Z,2.70
2023-10-27T10:18:07.199Z,2.70
2023-10-27T10:20:42.684Z,2.60
2023-10-27T10:23:09.746Z,2.70
2023-10-27T10:25:36.528Z,2.60
2023-10-27T10:28:09.131Z,2.40
2023-10-27T10:30:40.431Z,2.40
2023-10-27T10:33:24.484Z,2.00
2023-10-27T10:35:52.019Z,2.30
2023-10-27T10:38:24.678Z,1.70
2023-10-27T10:40:55.719Z,1.77
2023-10-27T10:43:30.547Z,1.60
2023-10-27T10:46:07.960Z,1.23
2023-10-27T10:48:35.702Z,1.50
2023-10-27T10:51:05.233Z,1.73
2023-10-27T10:53:31.913Z,1.70
2023-10-27T10:56:00.553Z,1.40
2023-10-27T10:58:32.014Z,1.00
2023-10-27T11:00:59.926Z,1.00
2023-10-27T11:03:29.502Z,0.87
2023-10-27T11:06:00.985Z,1.00
2023-10-27T11:08:29.443Z,0.70
2023-10-27T11:11:03.087Z,0.87
2023-10-27T11:13:30.814Z,0.93
2023-10-27T11:15:57.374Z,0.70
2023-10-27T11:18:28.300Z,0.90
2023-10-27T11:20:54.849Z,0.83
2023-10-27T11:23:21.331Z,1.03
2023-10-27T11:25:47.877Z,0.87
2023-10-27T11:28:27.944Z,0.70
2023-10-27T11:31:09.640Z,1.27
2023-10-27T11:34:04.458Z,1.10
2023-10-27T11:36:33.294Z,0.83
2023-10-27T11:39:20.117Z,0.70
2023-10-27T11:42:00.601Z,1.47
2023-10-27T11:44:31.246Z,1.30
2023-10-27T11:46:59.029Z,1.23
2023-10-27T11:49:27.068Z,1.20
2023-10-27T11:51:56.354Z,1.63
2023-10-27T11:54:23.812Z,0.77
2023-10-27T11:56:50.472Z,0.90
2023-10-27T11:59:18.371Z,0.90
2023-10-27T12:01:45.421Z,1.27
2023-10-27T12:04:12.421Z,1.10
2023-10-27T12:06:42.576Z,0.90
2023-10-27T12:09:09.757Z,1.03
2023-10-27T12:11:37.006Z,1.10
2023-10-27T12:14:04.197Z,1.30
2023-10-27T12:16:30.829Z,1.00
2023-10-27T12:18:58.198Z,1.43
2023-10-27T12:21:27.994Z,1.23
2023-10-27T12:23:54.967Z,0.83
2023-10-27T12:26:22.193Z,1.67
2023-10-27T12:28:48.916Z,1.00
2023-10-27T12:31:15.621Z,1.20
2023-10-27T12:33:42.693Z,1.20
2023-10-27T12:36:10.521Z,1.20
2023-10-27T12:38:37.629Z,1.30
2023-10-27T12:41:04.350Z,1.30
2023-10-27T12:43:31.839Z,1.00
2023-10-27T12:46:03.625Z,0.83
2023-10-27T12:48:31.643Z,0.53
2023-10-27T12:50:58.707Z,0.63
2023-10-27T12:53:25.664Z,0.60
2023-10-27T12:55:52.349Z,0.60
2023-10-27T12:58:18.926Z,0.60
2023-10-27T13:00:45.766Z,0.50
2023-10-27T13:03:12.325Z,0.40
2023-10-27T13:05:40.295Z,0.50
2023-10-27T13:08:11.200Z,0.60
2023-10-27T13:10:38.042Z,0.60
2023-10-27T13:13:04.606Z,0.40
2023-10-27T13:15:35.158Z,0.50
2023-10-27T13:18:02.831Z,0.40
2023-10-27T13:20:29.501Z,0.40
2023-10-27T13:22:56.017Z,0.50
2023-10-27T13:25:22.516Z,0.60
2023-10-27T13:27:52.022Z,0.40
2023-10-27T13:30:18.543Z,0.50
2023-10-27T13:32:50.984Z,0.50
2023-10-27T13:35:17.742Z,0.60
2023-10-27T13:37:44.435Z,0.70
2023-10-27T13:40:11.513Z,0.37
2023-10-27T13:42:38.043Z,0.70
2023-10-27T13:45:04.772Z,0.50
2023-10-27T13:47:31.386Z,0.53
2023-10-27T13:49:58.020Z,0.50
2023-10-27T13:52:24.579Z,0.70
2023-10-27T13:54:51.301Z,0.90
2023-10-27T13:57:19.273Z,0.43
2023-10-27T13:59:45.808Z,0.60
2023-10-27T14:02:15.118Z,0.50
2023-10-27T14:04:42.051Z,0.67
2023-10-27T14:07:08.878Z,0.47
2023-10-27T14:09:35.429Z,0.70
2023-10-27T14:12:01.960Z,0.70
2023-10-27T14:14:28.501Z,0.80
2023-10-27T14:16:55.037Z,0.60
2023-10-27T14:19:21.640Z,0.40
2023-10-27T14:21:49.522Z,0.90
2023-10-27T14:24:16.198Z,1.20
2023-10-27T14:26:42.684Z,0.40
2023-10-27T14:29:09.236Z,0.63
2023-10-27T14:31:36.963Z,0.50
2023-10-27T14:34:04.705Z,0.70
2023-10-27T14:36:31.236Z,0.70
2023-10-27T14:38:57.805Z,0.70
2023-10-27T14:41:25.843Z,0.50
2023-10-27T14:43:53.062Z,1.00
2023-10-27T14:46:20.329Z,0.47
2023-10-27T14:48:50.610Z,0.83
2023-10-27T14:51:20.310Z,0.57
2023-10-27T14:53:47.379Z,0.50
2023-10-27T14:56:13.921Z,0.90
2023-10-27T14:58:40.705Z,0.60
2023-10-27T15:01:16.585Z,1.03
2023-10-27T15:03:43.319Z,0.73
2023-10-27T15:06:11.031Z,1.40
2023-10-27T15:08:38.664Z,1.10
2023-10-27T15:11:08.559Z,1.30
2023-10-27T15:13:35.884Z,1.10
2023-10-27T15:16:10.177Z,1.07
2023-10-27T15:18:37.432Z,0.90
2023-10-27T15:21:05.897Z,0.87
2023-10-27T15:23:33.427Z,0.73
2023-10-27T15:26:01.583Z,1.30
2023-10-27T15:28:28.351Z,1.10
2023-10-27T15:30:59.061Z,1.20
2023-10-27T15:33:27.118Z,1.27
2023-10-27T15:36:02.598Z,0.90
2023-10-27T15:38:29.255Z,1.20
2023-10-27T15:40:57.449Z,1.20
2023-10-27T15:43:24.325Z,1.47
2023-10-27T15:46:03.268Z,1.30
2023-10-27T15:48:30.566Z,1.53
2023-10-27T15:51:00.476Z,1.20
2023-10-27T15:53:27.593Z,1.20
2023-10-27T15:55:55.025Z,1.10
2023-10-27T15:58:27.215Z,1.50
2023-10-27T16:00:55.187Z,1.20
2023-10-27T16:03:21.791Z,1.13
2023-10-27T16:05:49.440Z,1.40
2023-10-27T16:08:16.220Z,1.10
2023-10-27T16:10:43.049Z,1.50
2023-10-27T16:13:09.709Z,1.10
2023-10-27T16:15:36.716Z,1.57
2023-10-27T16:18:08.704Z,1.30
2023-10-27T16:20:35.829Z,1.13
2023-10-27T16:23:04.217Z,1.37
2023-10-27T16:25:31.707Z,1.30
2023-10-27T16:27:58.262Z,2.00
2023-10-27T16:30:24.751Z,2.10
2023-10-27T16:32:51.514Z,1.90
2023-10-27T16:35:18.002Z,1.50
2023-10-27T16:37:47.903Z,1.83
2023-10-27T16:40:14.618Z,1.50
2023-10-27T16:42:41.908Z,1.87
2023-10-27T16:45:08.782Z,1.63
2023-10-27T16:47:38.150Z,2.07
2023-10-27T16:50:06.071Z,1.83
2023-10-27T16:52:33.075Z,1.50
2023-10-27T16:54:59.998Z,1.40
2023-10-27T16:57:27.925Z,1.67
2023-10-27T16:59:54.418Z,1.90
2023-10-27T17:02:22.167Z,1.87
2023-10-27T17:04:48.878Z,1.70
2023-10-27T17:07:16.361Z,1.90
2023-10-27T17:09:43.003Z,2.30
2023-10-27T17:12:09.893Z,1.50
2023-10-27T17:14:37.020Z,1.70
2023-10-27T17:17:04.520Z,1.60
2023-10-27T17:19:30.994Z,1.67
2023-10-27T17:21:58.705Z,1.90
2023-10-27T17:24:25.190Z,2.00
2023-10-27T17:26:51.698Z,1.63
2023-10-27T17:29:18.224Z,1.93
2023-10-27T17:31:46.839Z,1.60
2023-10-27T17:34:13.347Z,1.33
2023-10-27T17:36:40.893Z,1.60
2023-10-27T17:39:09.733Z,1.60
2023-10-27T17:41:36.261Z,2.53
2023-10-27T17:44:02.822Z,1.33
2023-10-27T17:46:29.491Z,1.80
2023-10-27T17:48:56.090Z,2.43
2023-10-27T17:51:22.663Z,1.80
2023-10-27T17:53:49.155Z,2.03
2023-10-27T17:56:16.434Z,1.23
2023-10-27T17:58:43.365Z,1.73
2023-10-27T18:01:12.446Z,2.13
2023-10-27T18:03:40.691Z,2.60
2023-10-27T18:06:13.160Z,2.10
2023-10-27T18:08:40.018Z,2.37
2023-10-27T18:11:06.485Z,2.03
2023-10-27T18:13:33.046Z,1.90
2023-10-27T18:16:01.929Z,2.50
2023-10-27T18:18:32.556Z,1.60
2023-10-27T18:21:03.138Z,2.00
2023-10-27T18:23:29.658Z,2.50
2023-10-27T18:25:56.402Z,2.13
2023-10-27T18:28:22.982Z,2.13
2023-10-27T18:30:49.484Z,2.30
2023-10-27T18:33:16.015Z,2.17
2023-10-27T18:35:42.682Z,1.90
2023-10-27T18:38:10.949Z,1.63
2023-10-27T18:40:37.444Z,1.97
2023-10-27T18:43:04.952Z,2.47
2023-10-27T18:45:31.512Z,2.20
2023-10-27T18:47:58.641Z,1.77
2023-10-27T18:50:26.786Z,2.50
2023-10-27T18:52:53.367Z,2.50
2023-10-27T18:55:22.066Z,2.03
2023-10-27T18:57:48.553Z,2.50
2023-10-27T19:00:17.220Z,2.50
2023-10-27T19:02:44.864Z,2.03
2023-10-27T19:05:12.009Z,1.70
2023-10-27T19:07:42.134Z,2.27
2023-10-27T19:10:12.500Z,2.97
2023-10-27T19:12:51.439Z,2.10
2023-10-27T19:15:20.904Z,2.80
2023-10-27T19:17:48.802Z,2.40
2023-10-27T19:20:16.425Z,1.63
2023-10-27T19:22:44.278Z,2.17
2023-10-27T19:25:10.865Z,2.00
2023-10-27T19:27:37.485Z,2.20
2023-10-27T19:30:05.191Z,2.17
2023-10-27T19:32:31.725Z,2.67
2023-10-27T19:34:58.341Z,2.20
2023-10-27T19:37:25.220Z,2.40
2023-10-27T19:39:54.561Z,2.27
2023-10-27T19:42:22.650Z,2.13
2023-10-27T19:44:49.846Z,2.07
2023-10-27T19:47:16.511Z,2.20
2023-10-27T19:49:46.689Z,1.60
2023-10-27T19:52:13.740Z,1.77
2023-10-27T19:54:40.302Z,2.23
2023-10-27T19:57:06.860Z,1.70
2023-10-27T19:59:33.350Z,2.23
2023-10-27T20:02:00.602Z,2.37
2023-10-27T20:04:27.389Z,2.20
2023-10-27T20:06:54.013Z,1.80
2023-10-27T20:09:23.037Z,2.40
2023-10-27T20:11:51.662Z,2.30
2023-10-27T20:14:18.497Z,2.10
2023-10-27T20:16:45.133Z,2.80
2023-10-27T20:19:11.679Z,2.40
2023-10-27T20:21:38.212Z,2.70
2023-10-27T20:24:05.206Z,2.10
2023-10-27T20:26:31.679Z,3.77
2023-10-27T20:28:58.240Z,3.87
2023-10-27T20:31:24.810Z,2.90
2023-10-27T20:33:51.305Z,3.30
2023-10-27T20:36:19.079Z,3.03
2023-10-27T20:38:45.773Z,3.17
2023-10-27T20:41:12.479Z,2.70
2023-10-27T20:43:39.047Z,2.40
2023-10-27T20:46:05.616Z,3.20
2023-10-27T20:48:32.245Z,3.10
2023-10-27T20:51:02.466Z,11.07
2023-10-27T20:53:28.958Z,12.60
2023-10-27T20:55:56.507Z,26.10
2023-10-27T20:58:27.751Z,3.20
2023-10-27T21:00:54.683Z,4.00
2023-10-27T21:03:21.207Z,18.13
2023-10-27T21:05:47.708Z,19.93
2023-10-27T21:08:14.259Z,2.83
2023-10-27T21:10:43.072Z,7.40
2023-10-27T21:13:09.906Z,22.23
2023-10-27T21:15:36.503Z,2.70
2023-10-27T21:18:04.481Z,2.37
2023-10-27T21:20:31.015Z,5.57
2023-10-27T21:22:58.076Z,2.60
2023-10-27T21:25:25.876Z,4.23
2023-10-27T21:27:52.450Z,2.63
2023-10-27T21:30:18.963Z,9.20
2023-10-27T21:32:45.469Z,7.57
2023-10-27T21:35:12.995Z,8.53
2023-10-27T21:37:39.873Z,7.90
2023-10-27T21:40:08.754Z,15.57
2023-10-27T21:42:35.240Z,11.67
2023-10-27T21:45:01.746Z,8.13
2023-10-27T21:47:28.382Z,7.73
2023-10-27T21:49:54.901Z,9.13
2023-10-27T21:52:21.384Z,11.23
2023-10-27T21:54:47.853Z,8.90
2023-10-27T21:57:16.455Z,14.90
2023-10-27T21:59:44.365Z,12.80
2023-10-27T22:02:15.685Z,9.50
2023-10-27T22:04:43.479Z,22.70
2023-10-27T22:07:10.026Z,17.70
2023-10-27T22:09:36.821Z,21.03
2023-10-27T22:12:05.204Z,16.20
2023-10-27T22:14:34.084Z,10.63
2023-10-27T22:17:03.649Z,11.80
2023-10-27T22:19:30.663Z,9.50
2023-10-27T22:21:58.502Z,9.00
2023-10-27T22:24:25.010Z,7.27
2023-10-27T22:26:51.475Z,8.20
2023-10-27T22:29:17.980Z,8.37
2023-10-27T22:31:44.711Z,8.70
2023-10-27T22:34:12.966Z,6.87
2023-10-27T22:36:40.604Z,10.10
2023-10-27T22:39:07.312Z,8.97
2023-10-27T22:41:33.833Z,4.70
2023-10-27T22:44:00.439Z,21.23
2023-10-27T22:46:27.581Z,11.93
2023-10-27T22:48:54.110Z,8.33
2023-10-27T22:51:20.620Z,14.53
2023-10-27T22:53:47.195Z,17.80
2023-10-27T22:56:13.700Z,20.80
2023-10-27T22:58:40.186Z,7.30
2023-10-27T23:01:10.578Z,10.00
2023-10-27T23:03:37.154Z,4.50
2023-10-27T23:06:11.496Z,2.97
2023-10-27T23:08:39.083Z,2.67
2023-10-27T23:11:10.861Z,2.40
2023-10-27T23:13:38.678Z,2.23
2023-10-27T23:16:08.657Z,2.97
2023-10-27T23:18:41.724Z,2.67
2023-10-27T23:21:13.007Z,3.73
2023-10-27T23:23:42.805Z,2.00
2023-10-27T23:26:10.193Z,3.23
2023-10-27T23:28:37.280Z,4.53
2023-10-27T23:31:04.672Z,25.00
2023-10-27T23:33:33.015Z,8.60
2023-10-27T23:36:04.494Z,3.00
2023-10-27T23:38:34.243Z,5.63
2023-10-27T23:41:01.664Z,11.40
2023-10-27T23:43:28.335Z,10.33
2023-10-27T23:45:57.372Z,9.43
2023-10-27T23:48:26.917Z,11.60
2023-10-27T23:50:55.470Z,12.83
2023-10-27T23:53:25.123Z,9.90
2023-10-27T23:55:52.387Z,11.10
2023-10-27T23:58:18.963Z,14.53
